Time;durP1;ratioP1;P1;durP2;ratioP2;P2;SDS_P1;SDS_P2;PMS_P1;PMS_P2;Temp;Humidity;BMP_temperature;BMP_pressure;BME280_temperature;BME280_humidity;BME280_pressure;Samples;Min_cycle;Max_cycle;Signal;HPM_P1;HPM_P2
2024/03/30 00:08:19;;;;;;;8.50;4.90;;;;;;;10.64;65.18;98408.15;462069;1239;138590;-65
2024/03/30 00:18:23;;;;;;;8.80;4.50;;;;;;;10.65;65.68;98405.48;457740;1235;5112583;-67
2024/03/30 00:28:27;;;;;;;7.60;3.80;;;;;;;10.69;66.06;98401.33;462008;1239;139670;-63
2024/03/30 00:38:33;;;;;;;6.50;3.90;;;;;;;10.76;66.34;98387.39;461913;1238;138976;-62
2024/03/30 00:48:36;;;;;;;8.40;4.70;;;;;;;10.79;66.55;98374.88;462051;1236;139325;-64
2024/03/30 00:58:39;;;;;;;8.30;5.00;;;;;;;10.77;66.79;98360.00;449521;1239;141288;-58
2024/03/30 01:08:43;;;;;;;7.20;4.30;;;;;;;10.70;67.15;98360.80;449436;1239;139479;-58
2024/03/30 01:18:48;;;;;;;8.40;4.10;;;;;;;10.59;67.58;98357.83;449166;1236;139334;-66
2024/03/30 01:28:56;;;;;;;7.10;4.10;;;;;;;10.46;67.92;98365.53;449192;1239;139404;-66
2024/03/30 01:38:59;;;;;;;9.30;5.70;;;;;;;10.29;68.50;98362.53;449834;1239;139305;-59
2024/03/30 01:49:03;;;;;;;9.10;4.80;;;;;;;10.19;69.27;98357.77;448210;1239;138913;-60
2024/03/30 01:59:09;;;;;;;7.70;4.10;;;;;;;10.09;69.78;98352.06;447997;1239;138937;-57
2024/03/30 02:09:14;;;;;;;8.10;5.40;;;;;;;10.07;70.32;98351.22;447818;1239;138917;-59
2024/03/30 02:19:20;;;;;;;10.20;5.00;;;;;;;10.01;70.44;98362.77;448680;1236;138932;-64
2024/03/30 02:29:30;;;;;;;5.80;4.20;;;;;;;9.84;70.64;98366.33;448171;1237;139097;-64
2024/03/30 02:39:35;;;;;;;7.80;4.30;;;;;;;9.67;71.40;98359.34;448300;1239;140202;-58
2024/03/30 02:49:41;;;;;;;8.70;4.70;;;;;;;9.52;71.82;98366.58;448077;1239;138738;-57
2024/03/30 02:59:44;;;;;;;8.20;4.70;;;;;;;9.28;72.26;98378.04;448113;1239;138690;-66
2024/03/30 03:09:47;;;;;;;8.80;6.00;;;;;;;9.07;72.95;98377.81;447857;1239;139386;-66
2024/03/30 03:19:51;;;;;;;11.50;5.30;;;;;;;8.90;73.90;98378.89;448088;1239;139380;-58
2024/03/30 03:29:54;;;;;;;10.80;5.20;;;;;;;8.77;74.67;98381.27;450034;1239;139083;-61
2024/03/30 03:39:58;;;;;;;9.30;4.80;;;;;;;8.69;75.47;98384.45;447835;1239;138835;-70
2024/03/30 03:50:01;;;;;;;11.20;6.10;;;;;;;8.67;76.24;98383.08;448510;1239;138699;-70
2024/03/30 04:00:09;;;;;;;8.20;5.30;;;;;;;8.64;76.87;98384.27;447777;1239;139499;-69
2024/03/30 04:10:15;;;;;;;7.30;4.20;;;;;;;8.62;77.73;98393.58;447985;1239;140180;-69
2024/03/30 04:20:20;;;;;;;9.30;5.90;;;;;;;8.53;77.75;98411.83;448321;1236;138693;-71
2024/03/30 04:30:26;;;;;;;9.00;5.70;;;;;;;8.39;78.23;98408.25;447538;1240;139636;-60
2024/03/30 04:40:29;;;;;;;9.10;4.80;;;;;;;8.41;78.77;98401.69;448148;1239;138709;-60
2024/03/30 04:50:32;;;;;;;8.70;4.80;;;;;;;8.58;79.34;98404.30;447460;1239;139317;-60
2024/03/30 05:00:36;;;;;;;9.20;5.20;;;;;;;8.81;79.28;98420.91;447837;1239;140466;-60
2024/03/30 05:10:43;;;;;;;10.90;5.30;;;;;;;8.95;79.13;98422.35;447841;1240;138712;-58
2024/03/30 05:20:57;;;;;;;7.70;5.20;;;;;;;9.30;79.34;98414.05;448105;1239;139441;-58
2024/03/30 05:31:04;;;;;;;7.50;5.50;;;;;;;9.77;78.81;98417.45;447631;1236;138730;-60
2024/03/30 05:41:07;;;;;;;;;;;;;;;10.58;78.26;98407.63;448169;1239;139245;-61
2024/03/30 05:51:11;;;;;;;9.70;5.30;;;;;;;11.85;77.63;98403.84;448072;1240;126489;-68
2024/03/30 06:01:14;;;;;;;8.90;6.00;;;;;;;14.04;73.91;98404.86;447520;1239;139259;-69
2024/03/30 06:11:17;;;;;;;7.80;5.00;;;;;;;14.61;70.49;98414.98;447705;1239;139425;-66
2024/03/30 06:21:21;;;;;;;8.40;5.00;;;;;;;16.74;68.56;98411.48;447483;1239;139074;-65
2024/03/30 06:31:25;;;;;;;10.20;5.40;;;;;;;18.83;64.43;98410.11;447626;1239;138604;-58
2024/03/30 06:51:51;;;;;;;10.90;4.50;;;;;;;25.38;55.22;98401.95;447404;1240;139313;-67
2024/03/30 07:01:56;;;;;;;6.50;4.00;;;;;;;29.40;48.85;98409.77;447737;1235;139099;-66
2024/03/30 07:12:04;;;;;;;8.40;5.00;;;;;;;30.64;43.15;98417.71;447464;1240;138740;-59
2024/03/30 07:22:08;;;;;;;10.00;4.10;;;;;;;30.95;40.00;98424.33;447532;1239;138634;-60
2024/03/30 07:32:11;;;;;;;12.30;4.50;;;;;;;32.65;38.56;98424.08;448065;1239;138935;-59
2024/03/30 07:42:17;;;;;;;7.40;3.90;;;;;;;34.86;34.99;98424.11;447594;1240;138735;-60
2024/03/30 07:52:21;;;;;;;7.10;4.10;;;;;;;34.40;32.95;98423.41;447861;1239;139225;-60
2024/03/30 08:02:24;;;;;;;13.50;4.70;;;;;;;32.91;31.98;98417.41;448113;1239;138776;-60
2024/03/30 08:12:27;;;;;;;10.50;4.20;;;;;;;32.24;32.77;98423.69;447741;1240;139124;-61
2024/03/30 08:22:31;;;;;;;9.70;4.00;;;;;;;34.15;32.38;98424.01;447981;1239;139335;-60
2024/03/30 08:32:35;;;;;;;8.70;4.20;;;;;;;38.46;30.11;98419.09;447869;1240;138668;-61
2024/03/30 08:42:38;;;;;;;10.20;4.50;;;;;;;39.85;28.45;98410.07;447850;1235;138328;-70
2024/03/30 08:52:42;;;;;;;9.60;4.40;;;;;;;39.76;27.00;98408.27;447302;1241;139273;-68
2024/03/30 09:02:45;;;;;;;10.70;4.20;;;;;;;33.82;27.27;98402.79;447908;1239;138415;-69
2024/03/30 09:12:49;;;;;;;12.60;5.20;;;;;;;29.24;30.23;98397.79;447621;1235;138383;-69
2024/03/30 09:22:52;;;;;;;13.70;5.30;;;;;;;26.82;32.68;98391.84;447804;1239;138507;-68
2024/03/30 09:32:58;;;;;;;12.30;4.90;;;;;;;25.41;34.76;98382.48;448254;1238;138484;-68
2024/03/30 09:43:02;;;;;;;17.20;3.90;;;;;;;24.74;36.43;98372.93;448268;1235;139276;-77
2024/03/30 09:53:08;;;;;;;12.00;4.10;;;;;;;24.28;37.29;98357.04;451078;1235;139090;-71
2024/03/30 10:03:12;;;;;;;22.10;5.40;;;;;;;23.82;37.82;98352.29;448369;1235;138634;-70
2024/03/30 10:13:27;;;;;;;19.00;5.00;;;;;;;23.41;38.51;98347.92;449728;1236;138718;-72
2024/03/30 10:23:31;;;;;;;18.50;4.90;;;;;;;23.20;38.95;98345.95;450585;1236;139177;-73
2024/03/30 10:33:35;;;;;;;21.40;5.70;;;;;;;22.84;39.18;98335.84;461884;1235;138840;-67
2024/03/30 10:43:39;;;;;;;22.00;7.00;;;;;;;22.61;39.73;98325.55;462023;1235;138591;-65
2024/03/30 10:53:42;;;;;;;21.20;5.20;;;;;;;22.36;40.25;98328.30;461954;1235;139387;-68
2024/03/30 11:03:46;;;;;;;26.50;5.00;;;;;;;22.17;40.44;98337.95;459497;1235;139042;-69
2024/03/30 11:13:50;;;;;;;24.20;6.80;;;;;;;22.12;40.57;98336.88;461935;1235;138876;-70
2024/03/30 11:23:56;;;;;;;22.60;6.20;;;;;;;22.17;40.85;98334.58;454426;1236;138326;-70
2024/03/30 11:34:04;;;;;;;24.30;5.70;;;;;;;22.24;41.11;98315.79;450541;1236;138693;-61
2024/03/30 11:44:09;;;;;;;17.20;4.80;;;;;;;22.27;40.87;98309.04;447491;1235;138383;-62
2024/03/30 11:54:23;;;;;;;24.40;6.50;;;;;;;22.42;40.90;98298.55;448844;1239;138403;-60
2024/03/30 12:04:27;;;;;;;21.70;6.00;;;;;;;22.60;41.16;98296.73;449620;1236;138929;-59
2024/03/30 12:14:31;;;;;;;32.80;6.70;;;;;;;22.73;40.83;98291.12;449069;1235;2355097;-64
2024/03/30 12:24:35;;;;;;;33.00;8.80;;;;;;;22.91;40.04;98285.85;461990;1235;138791;-65
2024/03/30 12:34:38;;;;;;;33.10;9.70;;;;;;;23.17;39.61;98282.83;462009;1235;138553;-64
2024/03/30 12:44:42;;;;;;;40.50;9.60;;;;;;;23.40;39.13;98276.56;462204;1235;138591;-68
2024/03/30 12:54:45;;;;;;;36.40;9.70;;;;;;;23.54;38.65;98262.88;454451;1235;138931;-63
2024/03/30 13:04:48;;;;;;;39.50;9.00;;;;;;;23.62;38.30;98252.29;461771;1235;139030;-65
2024/03/30 13:14:52;;;;;;;50.50;10.50;;;;;;;23.69;38.02;98241.81;461959;1235;139014;-60
2024/03/30 13:24:55;;;;;;;49.30;11.00;;;;;;;23.72;37.12;98234.24;461839;1235;139593;-59
2024/03/30 13:35:03;;;;;;;35.60;10.50;;;;;;;23.75;36.68;98224.69;461983;1235;138818;-61
2024/03/30 13:45:07;;;;;;;41.00;10.70;;;;;;;23.90;36.53;98222.17;461947;1236;138637;-59
2024/03/30 13:55:11;;;;;;;57.10;11.40;;;;;;;23.98;36.20;98212.59;462038;1235;138673;-58
2024/03/30 14:05:14;;;;;;;51.00;11.60;;;;;;;23.92;36.33;98197.22;461955;1235;138737;-61
2024/03/30 14:15:18;;;;;;;37.40;10.00;;;;;;;24.04;36.17;98194.50;457303;1236;139346;-63
2024/03/30 14:25:24;;;;;;;42.80;9.50;;;;;;;23.97;35.97;98185.94;448829;1239;138647;-62
2024/03/30 14:35:29;;;;;;;36.80;10.00;;;;;;;23.78;36.19;98181.02;452375;1238;139221;-59
2024/03/30 14:45:33;;;;;;;34.60;10.00;;;;;;;23.56;36.43;98167.35;451612;1235;138658;-63
2024/03/30 14:55:36;;;;;;;50.20;12.80;;;;;;;23.44;36.40;98154.17;449719;1239;138642;-62
2024/03/30 15:05:40;;;;;;;46.60;11.00;;;;;;;23.36;36.35;98146.19;448364;1238;138869;-66
2024/03/30 15:15:43;;;;;;;43.40;10.00;;;;;;;23.28;35.87;98145.92;462068;1235;138733;-69
2024/03/30 15:25:47;;;;;;;25.50;7.40;;;;;;;23.19;35.48;98143.98;462166;1235;139340;-65
2024/03/30 15:35:50;;;;;;;30.40;8.10;;;;;;;23.03;34.10;98137.65;453690;1236;138942;-71
2024/03/30 15:45:57;;;;;;;22.70;7.60;;;;;;;22.99;33.65;98126.41;449676;1235;139120;-69
2024/03/30 15:56:02;;;;;;;30.30;5.90;;;;;;;22.72;33.38;98133.28;450001;1239;138481;-69
2024/03/30 16:06:07;;;;;;;29.10;7.60;;;;;;;22.40;33.70;98136.18;449274;1236;138871;-71
2024/03/30 16:16:10;;;;;;;21.70;6.80;;;;;;;22.15;33.74;98130.17;449114;1236;138696;-69
2024/03/30 16:26:14;;;;;;;25.50;6.00;;;;;;;21.79;34.03;98120.16;448971;1238;138534;-66
2024/03/30 16:36:18;;;;;;;29.50;6.10;;;;;;;21.36;34.29;98115.70;449196;1236;138497;-59
2024/03/30 16:46:21;;;;;;;36.00;6.70;;;;;;;20.93;34.57;98109.89;448323;1239;138974;-60
2024/03/30 16:56:25;;;;;;;38.40;9.60;;;;;;;20.57;34.83;98110.05;448690;1237;138484;-66
2024/03/30 17:06:29;;;;;;;31.70;8.60;;;;;;;20.26;35.23;98129.60;449468;1239;139299;-65
2024/03/30 17:16:32;;;;;;;31.30;8.30;;;;;;;19.95;35.69;98136.95;449256;1239;138522;-64
2024/03/30 17:26:36;;;;;;;29.10;6.10;;;;;;;19.72;36.03;98145.63;449198;1238;139042;-64
2024/03/30 17:36:40;;;;;;;31.60;7.70;;;;;;;19.57;35.96;98144.08;449353;1239;138524;-65
2024/03/30 17:46:43;;;;;;;32.40;9.70;;;;;;;19.49;35.78;98161.08;451632;1239;139207;-64
2024/03/30 17:56:47;;;;;;;34.60;7.70;;;;;;;19.38;35.62;98168.08;449768;1236;138978;-71
2024/03/30 18:06:53;;;;;;;43.20;8.00;;;;;;;19.25;35.81;98179.98;449916;1239;139110;-69
2024/03/30 18:16:58;;;;;;;25.90;6.70;;;;;;;19.09;35.98;98198.36;449577;1239;138681;-60
2024/03/30 18:27:02;;;;;;;36.40;8.10;;;;;;;18.93;36.10;98214.15;449809;1239;139101;-59
2024/03/30 18:37:06;;;;;;;36.00;9.40;;;;;;;18.77;36.43;98231.42;449206;1239;139193;-58
2024/03/30 18:47:09;;;;;;;40.90;8.70;;;;;;;18.72;36.88;98240.19;450003;1237;138922;-58
2024/03/30 18:57:12;;;;;;;29.10;7.60;;;;;;;18.62;36.98;98239.45;449122;1239;138923;-59
2024/03/30 19:07:24;;;;;;;27.10;8.60;;;;;;;18.50;37.17;98245.62;449505;1239;139566;-60
2024/03/30 19:17:28;;;;;;;37.10;12.50;;;;;;;18.36;37.40;98255.48;448556;1239;139391;-57
2024/03/30 19:27:31;;;;;;;39.60;11.50;;;;;;;18.19;37.82;98253.47;448928;1239;139876;-58
2024/03/30 19:37:34;;;;;;;27.50;8.60;;;;;;;18.03;37.97;98255.33;448565;1239;139274;-61
2024/03/30 19:47:38;;;;;;;34.50;8.30;;;;;;;17.91;38.28;98257.23;448477;1236;139600;-70
2024/03/30 19:57:42;;;;;;;34.10;9.00;;;;;;;17.76;38.40;98252.17;448867;1239;139295;-66
2024/03/30 20:07:46;;;;;;;39.10;10.60;;;;;;;17.59;38.72;98253.83;448289;1239;138625;-58
2024/03/30 20:17:50;;;;;;;25.80;8.60;;;;;;;17.37;39.00;98259.60;448902;1239;139065;-56
2024/03/30 20:27:56;;;;;;;27.50;9.00;;;;;;;17.14;39.40;98255.86;448414;1239;139412;-56
2024/03/30 20:38:00;;;;;;;28.70;8.40;;;;;;;16.94;39.66;98251.02;448110;1239;139313;-56
2024/03/30 20:48:06;;;;;;;40.80;8.90;;;;;;;16.81;40.07;98243.38;448352;1238;138614;-62
2024/03/30 20:58:09;;;;;;;29.70;7.20;;;;;;;16.74;40.47;98245.23;448404;1239;138621;-63
2024/03/30 21:08:12;;;;;;;31.30;9.10;;;;;;;16.73;40.65;98246.75;449517;1239;139237;-63
2024/03/30 21:18:20;;;;;;;39.10;8.80;;;;;;;16.74;40.72;98243.30;448981;1239;139626;-63
2024/03/30 21:28:23;;;;;;;31.20;9.80;;;;;;;16.68;40.87;98230.23;449522;1239;139181;-62
2024/03/30 21:38:27;;;;;;;33.70;10.90;;;;;;;16.48;41.22;98232.02;448630;1239;139237;-63
2024/03/30 21:48:31;;;;;;;36.80;9.30;;;;;;;16.20;41.64;98226.39;447958;1239;138854;-63
2024/03/30 21:58:34;;;;;;;38.90;10.30;;;;;;;15.94;42.21;98218.04;448561;1239;139210;-62
2024/03/30 22:08:37;;;;;;;42.50;11.00;;;;;;;15.72;42.79;98202.19;448401;1239;138961;-62
2024/03/30 22:18:41;;;;;;;28.40;8.70;;;;;;;15.57;43.26;98197.98;448507;1235;139066;-62
2024/03/30 22:28:46;;;;;;;36.40;9.70;;;;;;;15.37;43.67;98208.77;447801;1235;138566;-56
2024/03/30 22:38:51;;;;;;;38.60;9.40;;;;;;;15.24;44.30;98202.73;447955;1239;138620;-63
2024/03/30 22:48:54;;;;;;;31.90;7.40;;;;;;;15.21;44.89;98190.67;448471;1239;139206;-57
2024/03/30 22:58:57;;;;;;;28.70;7.50;;;;;;;15.27;45.35;98179.08;448007;1239;139139;-64
2024/03/30 23:09:01;;;;;;;29.20;8.80;;;;;;;15.27;45.77;98171.67;448834;1239;138431;-64
2024/03/30 23:19:04;;;;;;;25.90;6.90;;;;;;;15.25;46.24;98186.85;448803;1240;138649;-63
2024/03/30 23:29:08;;;;;;;36.40;7.20;;;;;;;15.25;46.57;98194.25;447585;1239;138597;-62
2024/03/30 23:39:13;;;;;;;21.50;6.90;;;;;;;15.19;47.02;98205.86;448025;1240;138510;-64
2024/03/30 23:49:17;;;;;;;30.40;8.20;;;;;;;15.09;47.43;98200.71;447556;1240;138608;-62
2024/03/30 23:59:21;;;;;;;22.50;6.70;;;;;;;15.03;47.90;98202.45;447716;1240;138505;-63
